sensor_id;sensor_type;location;lat;lon;timestamp;temperature;humidity
12682;DHT22;6405;59.208;18.216;2023-09-18T00:01:55;4.00;99.90
12682;DHT22;6405;59.208;18.216;2023-09-18T00:04:21;4.00;99.90
12682;DHT22;6405;59.208;18.216;2023-09-18T00:06:46;4.00;99.90
12682;DHT22;6405;59.208;18.216;2023-09-18T00:09:12;4.00;99.90
12682;DHT22;6405;59.208;18.216;2023-09-18T00:11:39;3.90;99.90
12682;DHT22;6405;59.208;18.216;2023-09-18T00:14:07;3.90;99.90
12682;DHT22;6405;59.208;18.216;2023-09-18T00:16:32;3.90;99.90
12682;DHT22;6405;59.208;18.216;2023-09-18T00:18:58;3.90;99.90
12682;DHT22;6405;59.208;18.216;2023-09-18T00:21:24;3.90;99.90
12682;DHT22;6405;59.208;18.216;2023-09-18T00:23:51;3.90;99.90
12682;DHT22;6405;59.208;18.216;2023-09-18T00:26:17;3.90;99.90
12682;DHT22;6405;59.208;18.216;2023-09-18T00:28:43;3.90;99.90
12682;DHT22;6405;59.208;18.216;2023-09-18T00:31:08;3.80;99.90
12682;DHT22;6405;59.208;18.216;2023-09-18T00:33:35;3.80;99.90
12682;DHT22;6405;59.208;18.216;2023-09-18T00:36:01;3.80;99.90
12682;DHT22;6405;59.208;18.216;2023-09-18T00:38:26;3.80;99.90
12682;DHT22;6405;59.208;18.216;2023-09-18T00:40:52;3.80;99.90
12682;DHT22;6405;59.208;18.216;2023-09-18T00:43:18;3.80;99.90
12682;DHT22;6405;59.208;18.216;2023-09-18T00:45:48;3.80;99.90
12682;DHT22;6405;59.208;18.216;2023-09-18T00:48:17;3.80;99.90
12682;DHT22;6405;59.208;18.216;2023-09-18T00:50:46;3.80;99.90
12682;DHT22;6405;59.208;18.216;2023-09-18T00:53:16;3.80;99.90
12682;DHT22;6405;59.208;18.216;2023-09-18T00:55:43;3.80;99.90
12682;DHT22;6405;59.208;18.216;2023-09-18T00:58:09;3.80;99.90
12682;DHT22;6405;59.208;18.216;2023-09-18T01:00:35;3.80;99.90
12682;DHT22;6405;59.208;18.216;2023-09-18T01:03:02;3.80;99.90
12682;DHT22;6405;59.208;18.216;2023-09-18T01:05:34;3.70;99.90
12682;DHT22;6405;59.208;18.216;2023-09-18T01:08:01;3.70;99.90
12682;DHT22;6405;59.208;18.216;2023-09-18T01:13:45;3.70;99.90
12682;DHT22;6405;59.208;18.216;2023-09-18T01:16:16;3.60;99.90
12682;DHT22;6405;59.208;18.216;2023-09-18T01:18:50;3.60;99.90
12682;DHT22;6405;59.208;18.216;2023-09-18T01:21:16;3.60;99.90
12682;DHT22;6405;59.208;18.216;2023-09-18T01:23:43;3.50;99.90
12682;DHT22;6405;59.208;18.216;2023-09-18T01:26:09;3.50;99.90
12682;DHT22;6405;59.208;18.216;2023-09-18T01:28:35;3.50;99.90
12682;DHT22;6405;59.208;18.216;2023-09-18T01:31:00;3.60;99.90
12682;DHT22;6405;59.208;18.216;2023-09-18T01:33:27;3.40;99.90
12682;DHT22;6405;59.208;18.216;2023-09-18T01:35:54;3.40;99.90
12682;DHT22;6405;59.208;18.216;2023-09-18T01:38:23;3.50;99.90
12682;DHT22;6405;59.208;18.216;2023-09-18T01:40:50;3.40;99.90
12682;DHT22;6405;59.208;18.216;2023-09-18T01:43:17;3.30;99.90
12682;DHT22;6405;59.208;18.216;2023-09-18T01:45:43;3.30;99.90
12682;DHT22;6405;59.208;18.216;2023-09-18T01:48:09;3.40;99.90
12682;DHT22;6405;59.208;18.216;2023-09-18T01:50:36;3.50;99.90
12682;DHT22;6405;59.208;18.216;2023-09-18T01:53:02;3.30;99.90
12682;DHT22;6405;59.208;18.216;2023-09-18T01:55:29;3.30;99.90
12682;DHT22;6405;59.208;18.216;2023-09-18T01:57:55;3.30;99.90
12682;DHT22;6405;59.208;18.216;2023-09-18T02:00:21;3.30;99.90
12682;DHT22;6405;59.208;18.216;2023-09-18T02:02:47;3.40;99.90
12682;DHT22;6405;59.208;18.216;2023-09-18T02:05:13;3.30;99.90
12682;DHT22;6405;59.208;18.216;2023-09-18T02:07:38;3.40;99.90
12682;DHT22;6405;59.208;18.216;2023-09-18T02:10:05;3.50;99.90
12682;DHT22;6405;59.208;18.216;2023-09-18T02:12:31;3.50;99.90
12682;DHT22;6405;59.208;18.216;2023-09-18T02:14:56;3.50;99.90
12682;DHT22;6405;59.208;18.216;2023-09-18T02:17:24;3.70;99.90
12682;DHT22;6405;59.208;18.216;2023-09-18T02:19:49;3.60;99.90
12682;DHT22;6405;59.208;18.216;2023-09-18T02:22:15;3.60;99.90
12682;DHT22;6405;59.208;18.216;2023-09-18T02:24:41;3.60;99.90
12682;DHT22;6405;59.208;18.216;2023-09-18T02:27:06;3.70;99.90
12682;DHT22;6405;59.208;18.216;2023-09-18T02:29:32;3.60;99.90
12682;DHT22;6405;59.208;18.216;2023-09-18T02:31:58;3.70;99.90
12682;DHT22;6405;59.208;18.216;2023-09-18T02:34:24;3.70;99.90
12682;DHT22;6405;59.208;18.216;2023-09-18T02:36:49;3.70;99.90
12682;DHT22;6405;59.208;18.216;2023-09-18T02:39:15;3.60;99.90
12682;DHT22;6405;59.208;18.216;2023-09-18T02:41:40;3.60;99.90
12682;DHT22;6405;59.208;18.216;2023-09-18T02:44:06;3.70;99.90
12682;DHT22;6405;59.208;18.216;2023-09-18T02:46:32;3.60;99.90
12682;DHT22;6405;59.208;18.216;2023-09-18T02:48:57;3.60;99.90
12682;DHT22;6405;59.208;18.216;2023-09-18T02:51:23;3.60;99.90
12682;DHT22;6405;59.208;18.216;2023-09-18T02:53:49;3.60;99.90
12682;DHT22;6405;59.208;18.216;2023-09-18T02:56:15;3.60;99.90
12682;DHT22;6405;59.208;18.216;2023-09-18T02:58:40;3.60;99.90
12682;DHT22;6405;59.208;18.216;2023-09-18T03:01:07;3.70;99.90
12682;DHT22;6405;59.208;18.216;2023-09-18T03:03:33;3.60;99.90
12682;DHT22;6405;59.208;18.216;2023-09-18T03:06:04;3.60;99.90
12682;DHT22;6405;59.208;18.216;2023-09-18T03:08:30;3.60;99.90
12682;DHT22;6405;59.208;18.216;2023-09-18T03:10:56;3.60;99.90
12682;DHT22;6405;59.208;18.216;2023-09-18T03:13:22;3.60;99.90
12682;DHT22;6405;59.208;18.216;2023-09-18T03:15:48;3.60;99.90
12682;DHT22;6405;59.208;18.216;2023-09-18T03:18:14;3.50;99.90
12682;DHT22;6405;59.208;18.216;2023-09-18T03:20:40;3.50;99.90
12682;DHT22;6405;59.208;18.216;2023-09-18T03:23:05;3.50;99.90
12682;DHT22;6405;59.208;18.216;2023-09-18T03:25:31;3.50;99.90
12682;DHT22;6405;59.208;18.216;2023-09-18T03:27:58;3.60;99.90
12682;DHT22;6405;59.208;18.216;2023-09-18T03:30:24;3.50;99.90
12682;DHT22;6405;59.208;18.216;2023-09-18T03:32:50;3.50;99.90
12682;DHT22;6405;59.208;18.216;2023-09-18T03:35:17;3.40;99.90
12682;DHT22;6405;59.208;18.216;2023-09-18T03:37:44;3.40;99.90
12682;DHT22;6405;59.208;18.216;2023-09-18T03:40:10;3.40;99.90
12682;DHT22;6405;59.208;18.216;2023-09-18T03:42:36;3.40;99.90
12682;DHT22;6405;59.208;18.216;2023-09-18T03:45:02;3.50;99.90
12682;DHT22;6405;59.208;18.216;2023-09-18T03:47:28;3.40;99.90
12682;DHT22;6405;59.208;18.216;2023-09-18T03:49:54;3.40;99.90
12682;DHT22;6405;59.208;18.216;2023-09-18T03:52:20;3.30;99.90
12682;DHT22;6405;59.208;18.216;2023-09-18T03:54:45;3.30;99.90
12682;DHT22;6405;59.208;18.216;2023-09-18T03:57:11;3.40;99.90
12682;DHT22;6405;59.208;18.216;2023-09-18T03:59:37;3.40;99.90
12682;DHT22;6405;59.208;18.216;2023-09-18T04:02:03;3.30;99.90
12682;DHT22;6405;59.208;18.216;2023-09-18T04:04:29;3.30;99.90
12682;DHT22;6405;59.208;18.216;2023-09-18T04:06:55;3.40;99.90
12682;DHT22;6405;59.208;18.216;2023-09-18T04:09:21;3.30;99.90
12682;DHT22;6405;59.208;18.216;2023-09-18T04:11:46;3.30;99.90
12682;DHT22;6405;59.208;18.216;2023-09-18T04:14:12;3.30;99.90
12682;DHT22;6405;59.208;18.216;2023-09-18T04:16:38;3.40;99.90
12682;DHT22;6405;59.208;18.216;2023-09-18T04:19:07;3.50;99.90
12682;DHT22;6405;59.208;18.216;2023-09-18T04:21:33;3.30;99.90
12682;DHT22;6405;59.208;18.216;2023-09-18T04:23:59;3.30;99.90
12682;DHT22;6405;59.208;18.216;2023-09-18T04:26:25;3.30;99.90
12682;DHT22;6405;59.208;18.216;2023-09-18T04:28:55;3.40;99.90
12682;DHT22;6405;59.208;18.216;2023-09-18T04:31:21;3.30;99.90
12682;DHT22;6405;59.208;18.216;2023-09-18T04:33:47;3.30;99.90
12682;DHT22;6405;59.208;18.216;2023-09-18T04:36:13;3.50;99.90
12682;DHT22;6405;59.208;18.216;2023-09-18T04:38:38;3.50;99.90
12682;DHT22;6405;59.208;18.216;2023-09-18T04:41:04;3.40;99.90
12682;DHT22;6405;59.208;18.216;2023-09-18T04:43:35;3.40;99.90
12682;DHT22;6405;59.208;18.216;2023-09-18T04:46:01;3.40;99.90
12682;DHT22;6405;59.208;18.216;2023-09-18T04:48:31;3.50;99.90
12682;DHT22;6405;59.208;18.216;2023-09-18T04:50:58;3.50;99.90
12682;DHT22;6405;59.208;18.216;2023-09-18T04:53:24;3.60;99.90
12682;DHT22;6405;59.208;18.216;2023-09-18T04:55:50;3.60;99.90
12682;DHT22;6405;59.208;18.216;2023-09-18T04:58:16;3.70;99.90
12682;DHT22;6405;59.208;18.216;2023-09-18T05:00:42;3.70;99.90
12682;DHT22;6405;59.208;18.216;2023-09-18T05:03:09;3.70;99.90
12682;DHT22;6405;59.208;18.216;2023-09-18T05:05:35;3.80;99.90
12682;DHT22;6405;59.208;18.216;2023-09-18T05:08:06;3.80;99.90
12682;DHT22;6405;59.208;18.216;2023-09-18T05:10:36;3.90;99.90
12682;DHT22;6405;59.208;18.216;2023-09-18T05:13:03;3.90;99.90
12682;DHT22;6405;59.208;18.216;2023-09-18T05:15:30;3.90;99.90
12682;DHT22;6405;59.208;18.216;2023-09-18T05:17:56;4.00;99.90
12682;DHT22;6405;59.208;18.216;2023-09-18T05:20:28;4.00;99.90
12682;DHT22;6405;59.208;18.216;2023-09-18T05:22:54;4.10;99.90
12682;DHT22;6405;59.208;18.216;2023-09-18T05:25:22;4.20;99.90
12682;DHT22;6405;59.208;18.216;2023-09-18T05:27:48;4.20;99.90
12682;DHT22;6405;59.208;18.216;2023-09-18T05:30:39;4.30;99.90
12682;DHT22;6405;59.208;18.216;2023-09-18T05:33:06;4.30;99.90
12682;DHT22;6405;59.208;18.216;2023-09-18T05:35:41;4.60;99.90
12682;DHT22;6405;59.208;18.216;2023-09-18T05:38:11;4.60;99.90
12682;DHT22;6405;59.208;18.216;2023-09-18T05:40:39;4.50;99.90
12682;DHT22;6405;59.208;18.216;2023-09-18T05:43:05;4.80;99.90
12682;DHT22;6405;59.208;18.216;2023-09-18T05:45:31;4.80;99.90
12682;DHT22;6405;59.208;18.216;2023-09-18T05:47:58;4.70;99.90
12682;DHT22;6405;59.208;18.216;2023-09-18T05:50:33;4.90;99.90
12682;DHT22;6405;59.208;18.216;2023-09-18T05:53:01;4.80;99.90
12682;DHT22;6405;59.208;18.216;2023-09-18T05:55:32;4.90;99.90
12682;DHT22;6405;59.208;18.216;2023-09-18T05:57:59;5.00;99.90
12682;DHT22;6405;59.208;18.216;2023-09-18T06:00:25;5.20;99.90
12682;DHT22;6405;59.208;18.216;2023-09-18T06:02:51;5.30;99.90
12682;DHT22;6405;59.208;18.216;2023-09-18T06:05:17;5.50;99.90
12682;DHT22;6405;59.208;18.216;2023-09-18T06:07:49;5.70;99.90
12682;DHT22;6405;59.208;18.216;2023-09-18T06:10:15;6.00;99.90
12682;DHT22;6405;59.208;18.216;2023-09-18T06:12:42;6.20;99.90
12682;DHT22;6405;59.208;18.216;2023-09-18T06:15:08;6.40;99.90
12682;DHT22;6405;59.208;18.216;2023-09-18T06:17:39;6.60;99.90
12682;DHT22;6405;59.208;18.216;2023-09-18T06:20:06;6.90;99.90
12682;DHT22;6405;59.208;18.216;2023-09-18T06:22:39;7.10;99.90
12682;DHT22;6405;59.208;18.216;2023-09-18T06:25:06;7.20;99.90
12682;DHT22;6405;59.208;18.216;2023-09-18T06:27:34;7.40;99.90
12682;DHT22;6405;59.208;18.216;2023-09-18T06:30:01;7.50;99.90
12682;DHT22;6405;59.208;18.216;2023-09-18T06:32:26;7.80;99.90
12682;DHT22;6405;59.208;18.216;2023-09-18T06:34:52;8.00;99.90
12682;DHT22;6405;59.208;18.216;2023-09-18T06:37:18;8.20;99.90
12682;DHT22;6405;59.208;18.216;2023-09-18T06:39:44;8.30;99.90
12682;DHT22;6405;59.208;18.216;2023-09-18T06:42:10;8.50;99.90
12682;DHT22;6405;59.208;18.216;2023-09-18T06:44:35;8.70;99.90
12682;DHT22;6405;59.208;18.216;2023-09-18T06:47:01;8.90;99.90
12682;DHT22;6405;59.208;18.216;2023-09-18T06:49:27;9.10;99.90
12682;DHT22;6405;59.208;18.216;2023-09-18T06:51:53;9.30;99.90
12682;DHT22;6405;59.208;18.216;2023-09-18T06:54:18;9.50;99.90
12682;DHT22;6405;59.208;18.216;2023-09-18T06:56:45;9.70;99.90
12682;DHT22;6405;59.208;18.216;2023-09-18T06:59:11;9.90;99.90
12682;DHT22;6405;59.208;18.216;2023-09-18T07:01:37;10.10;99.90
12682;DHT22;6405;59.208;18.216;2023-09-18T07:04:03;10.20;99.90
12682;DHT22;6405;59.208;18.216;2023-09-18T07:06:30;10.30;99.90
12682;DHT22;6405;59.208;18.216;2023-09-18T07:08:56;10.40;99.90
12682;DHT22;6405;59.208;18.216;2023-09-18T07:11:22;10.50;99.90
12682;DHT22;6405;59.208;18.216;2023-09-18T07:13:47;10.60;99.90
12682;DHT22;6405;59.208;18.216;2023-09-18T07:16:13;10.70;99.90
12682;DHT22;6405;59.208;18.216;2023-09-18T07:18:39;10.80;99.90
12682;DHT22;6405;59.208;18.216;2023-09-18T07:21:05;10.90;99.90
12682;DHT22;6405;59.208;18.216;2023-09-18T07:23:30;10.90;99.90
12682;DHT22;6405;59.208;18.216;2023-09-18T07:25:56;11.00;99.90
12682;DHT22;6405;59.208;18.216;2023-09-18T07:28:24;11.20;99.90
12682;DHT22;6405;59.208;18.216;2023-09-18T07:30:50;11.30;99.90
12682;DHT22;6405;59.208;18.216;2023-09-18T07:33:16;11.40;99.90
12682;DHT22;6405;59.208;18.216;2023-09-18T07:35:48;11.60;99.90
12682;DHT22;6405;59.208;18.216;2023-09-18T07:38:14;11.80;99.90
12682;DHT22;6405;59.208;18.216;2023-09-18T07:40:40;11.90;99.90
12682;DHT22;6405;59.208;18.216;2023-09-18T07:43:06;12.10;99.90
12682;DHT22;6405;59.208;18.216;2023-09-18T07:45:34;12.30;99.90
12682;DHT22;6405;59.208;18.216;2023-09-18T07:47:59;12.50;99.90
12682;DHT22;6405;59.208;18.216;2023-09-18T07:50:25;12.60;99.90
12682;DHT22;6405;59.208;18.216;2023-09-18T07:52:52;12.70;99.90
12682;DHT22;6405;59.208;18.216;2023-09-18T07:55:18;12.80;99.90
12682;DHT22;6405;59.208;18.216;2023-09-18T07:57:43;12.90;99.90
12682;DHT22;6405;59.208;18.216;2023-09-18T08:00:11;13.00;99.90
12682;DHT22;6405;59.208;18.216;2023-09-18T08:02:39;13.10;99.90
12682;DHT22;6405;59.208;18.216;2023-09-18T08:05:05;13.20;99.90
12682;DHT22;6405;59.208;18.216;2023-09-18T08:07:31;13.30;99.90
12682;DHT22;6405;59.208;18.216;2023-09-18T08:09:57;13.40;99.90
12682;DHT22;6405;59.208;18.216;2023-09-18T08:12:23;13.50;99.90
12682;DHT22;6405;59.208;18.216;2023-09-18T08:14:49;13.60;99.90
12682;DHT22;6405;59.208;18.216;2023-09-18T08:17:16;13.70;99.90
12682;DHT22;6405;59.208;18.216;2023-09-18T08:19:41;13.80;99.90
12682;DHT22;6405;59.208;18.216;2023-09-18T08:22:09;13.90;99.90
12682;DHT22;6405;59.208;18.216;2023-09-18T08:24:37;14.00;99.90
12682;DHT22;6405;59.208;18.216;2023-09-18T08:27:03;14.00;99.90
12682;DHT22;6405;59.208;18.216;2023-09-18T08:29:29;14.10;99.90
12682;DHT22;6405;59.208;18.216;2023-09-18T08:31:54;14.10;99.90
12682;DHT22;6405;59.208;18.216;2023-09-18T08:34:20;14.20;99.90
12682;DHT22;6405;59.208;18.216;2023-09-18T08:36:46;14.20;99.90
12682;DHT22;6405;59.208;18.216;2023-09-18T08:39:11;14.30;99.90
12682;DHT22;6405;59.208;18.216;2023-09-18T08:41:42;14.40;99.90
12682;DHT22;6405;59.208;18.216;2023-09-18T08:44:08;14.40;99.90
12682;DHT22;6405;59.208;18.216;2023-09-18T08:46:36;14.50;99.90
12682;DHT22;6405;59.208;18.216;2023-09-18T08:49:04;14.50;99.90
12682;DHT22;6405;59.208;18.216;2023-09-18T08:51:30;14.60;99.90
12682;DHT22;6405;59.208;18.216;2023-09-18T08:53:57;14.60;99.90
12682;DHT22;6405;59.208;18.216;2023-09-18T08:56:23;14.60;99.90
12682;DHT22;6405;59.208;18.216;2023-09-18T08:58:49;14.60;99.90
12682;DHT22;6405;59.208;18.216;2023-09-18T09:01:15;14.80;99.90
12682;DHT22;6405;59.208;18.216;2023-09-18T09:03:42;15.00;99.90
12682;DHT22;6405;59.208;18.216;2023-09-18T09:06:09;15.10;99.90
12682;DHT22;6405;59.208;18.216;2023-09-18T09:08:36;15.30;99.90
12682;DHT22;6405;59.208;18.216;2023-09-18T09:11:02;15.40;99.90
12682;DHT22;6405;59.208;18.216;2023-09-18T09:13:28;15.50;99.90
12682;DHT22;6405;59.208;18.216;2023-09-18T09:15:55;15.60;99.90
12682;DHT22;6405;59.208;18.216;2023-09-18T09:18:27;15.60;99.90
12682;DHT22;6405;59.208;18.216;2023-09-18T09:20:58;15.60;99.90
12682;DHT22;6405;59.208;18.216;2023-09-18T09:23:30;15.50;99.90
12682;DHT22;6405;59.208;18.216;2023-09-18T09:26:15;15.30;99.90
12682;DHT22;6405;59.208;18.216;2023-09-18T09:28:42;15.30;99.90
12682;DHT22;6405;59.208;18.216;2023-09-18T09:31:09;15.20;99.90
12682;DHT22;6405;59.208;18.216;2023-09-18T09:33:37;15.30;99.90
12682;DHT22;6405;59.208;18.216;2023-09-18T09:36:07;15.60;99.90
12682;DHT22;6405;59.208;18.216;2023-09-18T09:38:34;15.80;99.90
12682;DHT22;6405;59.208;18.216;2023-09-18T09:41:00;15.90;99.90
12682;DHT22;6405;59.208;18.216;2023-09-18T09:43:30;16.10;99.90
12682;DHT22;6405;59.208;18.216;2023-09-18T09:45:58;16.20;99.90
12682;DHT22;6405;59.208;18.216;2023-09-18T09:48:24;16.00;99.90
12682;DHT22;6405;59.208;18.216;2023-09-18T09:50:57;15.90;99.90
12682;DHT22;6405;59.208;18.216;2023-09-18T09:53:47;15.80;99.90
12682;DHT22;6405;59.208;18.216;2023-09-18T09:56:14;15.80;99.90
12682;DHT22;6405;59.208;18.216;2023-09-18T09:58:48;15.80;99.90
12682;DHT22;6405;59.208;18.216;2023-09-18T10:01:14;15.90;99.90
12682;DHT22;6405;59.208;18.216;2023-09-18T10:03:44;16.00;99.90
12682;DHT22;6405;59.208;18.216;2023-09-18T10:06:10;16.00;99.90
12682;DHT22;6405;59.208;18.216;2023-09-18T10:08:40;15.90;99.90
12682;DHT22;6405;59.208;18.216;2023-09-18T10:11:08;15.80;99.90
12682;DHT22;6405;59.208;18.216;2023-09-18T10:13:53;15.70;99.90
12682;DHT22;6405;59.208;18.216;2023-09-18T10:16:22;15.70;99.90
12682;DHT22;6405;59.208;18.216;2023-09-18T10:19:11;15.70;99.90
12682;DHT22;6405;59.208;18.216;2023-09-18T10:24:37;15.40;99.90
12682;DHT22;6405;59.208;18.216;2023-09-18T10:27:06;15.40;99.90
12682;DHT22;6405;59.208;18.216;2023-09-18T10:29:35;15.40;99.90
12682;DHT22;6405;59.208;18.216;2023-09-18T10:32:06;15.50;99.90
12682;DHT22;6405;59.208;18.216;2023-09-18T10:34:35;15.50;99.90
12682;DHT22;6405;59.208;18.216;2023-09-18T10:37:03;15.70;99.90
12682;DHT22;6405;59.208;18.216;2023-09-18T10:39:36;15.80;99.90
12682;DHT22;6405;59.208;18.216;2023-09-18T10:42:02;15.90;99.90
12682;DHT22;6405;59.208;18.216;2023-09-18T10:44:30;16.00;99.90
12682;DHT22;6405;59.208;18.216;2023-09-18T10:46:57;15.90;99.90
12682;DHT22;6405;59.208;18.216;2023-09-18T10:49:24;15.80;99.90
12682;DHT22;6405;59.208;18.216;2023-09-18T10:51:54;16.00;99.90
12682;DHT22;6405;59.208;18.216;2023-09-18T10:54:24;16.10;99.90
12682;DHT22;6405;59.208;18.216;2023-09-18T10:56:51;16.20;99.90
12682;DHT22;6405;59.208;18.216;2023-09-18T10:59:17;16.20;99.90
12682;DHT22;6405;59.208;18.216;2023-09-18T11:01:43;16.20;99.90
12682;DHT22;6405;59.208;18.216;2023-09-18T11:04:10;16.20;99.90
12682;DHT22;6405;59.208;18.216;2023-09-18T11:09:31;16.30;99.90
12682;DHT22;6405;59.208;18.216;2023-09-18T11:17:39;16.40;99.90
12682;DHT22;6405;59.208;18.216;2023-09-18T11:20:24;16.30;99.90
12682;DHT22;6405;59.208;18.216;2023-09-18T11:23:09;16.30;99.90
12682;DHT22;6405;59.208;18.216;2023-09-18T11:25:40;16.30;99.90
12682;DHT22;6405;59.208;18.216;2023-09-18T11:28:23;16.30;99.90
12682;DHT22;6405;59.208;18.216;2023-09-18T11:30:50;16.20;99.90
12682;DHT22;6405;59.208;18.216;2023-09-18T11:33:30;16.10;99.90
12682;DHT22;6405;59.208;18.216;2023-09-18T11:35:56;16.10;99.90
12682;DHT22;6405;59.208;18.216;2023-09-18T11:38:22;16.20;99.90
12682;DHT22;6405;59.208;18.216;2023-09-18T11:40:51;16.40;99.90
12682;DHT22;6405;59.208;18.216;2023-09-18T11:43:28;16.50;99.90
12682;DHT22;6405;59.208;18.216;2023-09-18T11:45:59;16.60;99.90
12682;DHT22;6405;59.208;18.216;2023-09-18T11:48:27;17.00;99.90
12682;DHT22;6405;59.208;18.216;2023-09-18T11:50:56;17.20;99.90
12682;DHT22;6405;59.208;18.216;2023-09-18T11:53:23;17.20;99.90
12682;DHT22;6405;59.208;18.216;2023-09-18T11:55:50;17.30;99.90
12682;DHT22;6405;59.208;18.216;2023-09-18T11:58:16;16.90;99.90
12682;DHT22;6405;59.208;18.216;2023-09-18T12:00:42;16.80;99.90
12682;DHT22;6405;59.208;18.216;2023-09-18T12:03:18;16.80;99.90
12682;DHT22;6405;59.208;18.216;2023-09-18T12:05:53;16.90;99.90
12682;DHT22;6405;59.208;18.216;2023-09-18T12:08:20;16.60;99.90
12682;DHT22;6405;59.208;18.216;2023-09-18T12:10:51;16.60;99.90
12682;DHT22;6405;59.208;18.216;2023-09-18T12:13:17;16.50;99.90
12682;DHT22;6405;59.208;18.216;2023-09-18T12:15:43;16.40;99.90
12682;DHT22;6405;59.208;18.216;2023-09-18T12:18:10;16.30;99.90
12682;DHT22;6405;59.208;18.216;2023-09-18T12:20:45;16.40;99.90
12682;DHT22;6405;59.208;18.216;2023-09-18T12:23:11;16.40;99.90
12682;DHT22;6405;59.208;18.216;2023-09-18T12:25:38;16.30;99.90
12682;DHT22;6405;59.208;18.216;2023-09-18T12:28:06;16.30;99.90
12682;DHT22;6405;59.208;18.216;2023-09-18T12:30:33;16.20;99.90
12682;DHT22;6405;59.208;18.216;2023-09-18T12:32:59;16.10;99.90
12682;DHT22;6405;59.208;18.216;2023-09-18T12:35:26;16.20;99.90
12682;DHT22;6405;59.208;18.216;2023-09-18T12:37:59;16.50;99.90
12682;DHT22;6405;59.208;18.216;2023-09-18T12:40:30;16.80;99.90
12682;DHT22;6405;59.208;18.216;2023-09-18T12:42:59;16.70;99.90
12682;DHT22;6405;59.208;18.216;2023-09-18T12:45:26;16.90;99.90
12682;DHT22;6405;59.208;18.216;2023-09-18T12:47:54;16.80;99.90
12682;DHT22;6405;59.208;18.216;2023-09-18T12:50:20;16.70;99.90
12682;DHT22;6405;59.208;18.216;2023-09-18T12:52:46;16.70;99.90
12682;DHT22;6405;59.208;18.216;2023-09-18T12:55:22;16.80;99.90
12682;DHT22;6405;59.208;18.216;2023-09-18T12:57:49;16.90;99.90
12682;DHT22;6405;59.208;18.216;2023-09-18T13:00:17;17.20;99.90
12682;DHT22;6405;59.208;18.216;2023-09-18T13:02:45;17.10;99.90
12682;DHT22;6405;59.208;18.216;2023-09-18T13:05:12;17.00;99.90
12682;DHT22;6405;59.208;18.216;2023-09-18T13:07:44;17.00;99.90
12682;DHT22;6405;59.208;18.216;2023-09-18T13:10:10;16.90;99.90
12682;DHT22;6405;59.208;18.216;2023-09-18T13:15:09;17.20;99.90
12682;DHT22;6405;59.208;18.216;2023-09-18T13:17:42;17.10;99.90
12682;DHT22;6405;59.208;18.216;2023-09-18T13:20:22;17.00;99.90
12682;DHT22;6405;59.208;18.216;2023-09-18T13:22:55;17.10;99.90
12682;DHT22;6405;59.208;18.216;2023-09-18T13:25:28;17.10;99.90
12682;DHT22;6405;59.208;18.216;2023-09-18T13:27:54;16.70;99.90
12682;DHT22;6405;59.208;18.216;2023-09-18T13:30:21;16.70;99.90
12682;DHT22;6405;59.208;18.216;2023-09-18T13:32:50;16.70;99.90
12682;DHT22;6405;59.208;18.216;2023-09-18T13:35:17;16.80;99.90
12682;DHT22;6405;59.208;18.216;2023-09-18T13:37:43;17.00;99.90
12682;DHT22;6405;59.208;18.216;2023-09-18T13:40:10;16.90;99.90
12682;DHT22;6405;59.208;18.216;2023-09-18T13:42:37;16.80;99.90
12682;DHT22;6405;59.208;18.216;2023-09-18T13:45:05;16.80;99.90
12682;DHT22;6405;59.208;18.216;2023-09-18T13:47:32;16.70;99.90
12682;DHT22;6405;59.208;18.216;2023-09-18T13:49:59;16.70;99.90
12682;DHT22;6405;59.208;18.216;2023-09-18T13:52:34;16.50;99.90
12682;DHT22;6405;59.208;18.216;2023-09-18T13:55:01;16.50;99.90
12682;DHT22;6405;59.208;18.216;2023-09-18T13:57:31;16.20;99.90
12682;DHT22;6405;59.208;18.216;2023-09-18T13:59:57;16.00;99.90
12682;DHT22;6405;59.208;18.216;2023-09-18T14:02:23;16.00;99.90
12682;DHT22;6405;59.208;18.216;2023-09-18T14:04:55;15.80;99.90
12682;DHT22;6405;59.208;18.216;2023-09-18T14:07:21;15.70;99.90
12682;DHT22;6405;59.208;18.216;2023-09-18T14:09:47;15.70;99.90
12682;DHT22;6405;59.208;18.216;2023-09-18T14:12:13;15.60;99.90
12682;DHT22;6405;59.208;18.216;2023-09-18T14:14:43;15.50;99.90
12682;DHT22;6405;59.208;18.216;2023-09-18T14:17:10;15.60;99.90
12682;DHT22;6405;59.208;18.216;2023-09-18T14:19:35;15.60;99.90
12682;DHT22;6405;59.208;18.216;2023-09-18T14:22:04;15.60;99.90
12682;DHT22;6405;59.208;18.216;2023-09-18T14:24:31;15.60;99.90
12682;DHT22;6405;59.208;18.216;2023-09-18T14:27:00;15.60;99.90
12682;DHT22;6405;59.208;18.216;2023-09-18T14:29:25;15.50;99.90
12682;DHT22;6405;59.208;18.216;2023-09-18T14:31:52;15.50;99.90
12682;DHT22;6405;59.208;18.216;2023-09-18T14:34:18;15.40;99.90
12682;DHT22;6405;59.208;18.216;2023-09-18T14:36:43;15.50;99.90
12682;DHT22;6405;59.208;18.216;2023-09-18T14:39:10;15.40;99.90
12682;DHT22;6405;59.208;18.216;2023-09-18T14:41:37;15.40;99.90
12682;DHT22;6405;59.208;18.216;2023-09-18T14:44:08;15.30;99.90
12682;DHT22;6405;59.208;18.216;2023-09-18T14:46:37;15.30;99.90
12682;DHT22;6405;59.208;18.216;2023-09-18T14:49:07;15.30;99.90
12682;DHT22;6405;59.208;18.216;2023-09-18T14:51:33;15.30;99.90
12682;DHT22;6405;59.208;18.216;2023-09-18T14:54:00;15.30;99.90
12682;DHT22;6405;59.208;18.216;2023-09-18T14:56:27;15.30;99.90
12682;DHT22;6405;59.208;18.216;2023-09-18T14:58:53;15.30;99.90
12682;DHT22;6405;59.208;18.216;2023-09-18T15:01:21;15.30;99.90
12682;DHT22;6405;59.208;18.216;2023-09-18T15:03:47;15.30;99.90
12682;DHT22;6405;59.208;18.216;2023-09-18T15:06:14;15.30;99.90
12682;DHT22;6405;59.208;18.216;2023-09-18T15:08:40;15.40;99.90
12682;DHT22;6405;59.208;18.216;2023-09-18T15:11:06;15.40;99.90
12682;DHT22;6405;59.208;18.216;2023-09-18T15:13:32;15.40;99.90
12682;DHT22;6405;59.208;18.216;2023-09-18T15:16:03;15.30;99.90
12682;DHT22;6405;59.208;18.216;2023-09-18T15:18:28;15.30;99.90
12682;DHT22;6405;59.208;18.216;2023-09-18T15:20:54;15.30;99.90
12682;DHT22;6405;59.208;18.216;2023-09-18T15:23:21;15.30;99.90
12682;DHT22;6405;59.208;18.216;2023-09-18T15:25:50;15.20;99.90
12682;DHT22;6405;59.208;18.216;2023-09-18T15:28:19;15.20;99.90
12682;DHT22;6405;59.208;18.216;2023-09-18T15:30:46;15.10;99.90
12682;DHT22;6405;59.208;18.216;2023-09-18T15:33:12;15.00;99.90
12682;DHT22;6405;59.208;18.216;2023-09-18T15:35:38;15.00;99.90
12682;DHT22;6405;59.208;18.216;2023-09-18T15:38:04;14.90;99.90
12682;DHT22;6405;59.208;18.216;2023-09-18T15:40:32;14.90;99.90
12682;DHT22;6405;59.208;18.216;2023-09-18T15:42:58;14.80;99.90
12682;DHT22;6405;59.208;18.216;2023-09-18T15:45:24;14.80;99.90
12682;DHT22;6405;59.208;18.216;2023-09-18T15:47:50;14.80;99.90
12682;DHT22;6405;59.208;18.216;2023-09-18T15:50:16;14.80;99.90
12682;DHT22;6405;59.208;18.216;2023-09-18T15:52:42;14.80;99.90
12682;DHT22;6405;59.208;18.216;2023-09-18T15:55:08;14.80;99.90
12682;DHT22;6405;59.208;18.216;2023-09-18T15:57:36;14.70;99.90